Mount Meigs, Alabama
Current Conditions -  °F | °C
As of 2:58 PM on Sunday 21 Dec 2014 (Local Time) from KMXF Reporting Station
Overcast Overcast  
Wind Chill: 55°   Ceiling: 1800
Heat Index: 55°   Visibility: 10mi
Dew Point: 49°   Wind: 3mph
Humidity: 80%   Direction: 20°NNE
Pressure: 30.07"   Gusts: NA
Location:  32.36°N, 86.1°W
Report Text: KMXF 212058Z AUTO 02003KT 10SM OVC018 13/09 A3007 RMK AO2 SLP185 T01260093 55015
Loading
Personal Weather Stations






























Interactive Weather Map New forecast layout! Learn more

10-Day Weather Forecast

Advertisements
Track Severe Weather on mobile